AirNav   Air Wisconsin Up To $57,000 Bonus
 
 486 users online  

76CO Hoy Airstrip
Bennett, Colorado, USA

GOING TO BENNETT?


FAA INFORMATION EFFECTIVE 26 JANUARY 2023

Location

FAA Identifier: 76CO
Lat/Long: 39-50-08.9430N 104-25-19.8540W
39-50.149050N 104-25.330900W
39.8358175,-104.4221817
(estimated)
Elevation: 5310 ft. / 1618 m (estimated)
Variation: 11E (1985)
From city: 5 miles S of BENNETT, CO
Time zone: UTC -7 (UTC -6 during Daylight Saving Time)
Zip code: 80102

Airport Operations

Airport use: Private use. Permission required prior to landing
Activation date: 11/1985
Control tower: no
ARTCC: DENVER CENTER
FSS: DENVER FLIGHT SERVICE STATION
Attendance: UNATNDD
Wind indicator: yes
Segmented circle: no

Airport Communications

WX AWOS-3 at CFO (6 nm SW): 119.025 (303-261-9104)
WX ASOS at DEN (12 nm W): PHONE 303-342-1920

Nearby radio navigation aids

VOR radial/distance  VOR name  Freq  Var
DVVr103/10.0MILE HIGH VORTAC114.7008E
DENr075/11.1DENVER VOR/DME117.9008E
FQFr035/12.7FALCON VORTAC116.3011E
BJCr087/33.3JEFFCO VOR/DME115.4011E

Airport Services

Runway Information

Runway 17/35

Dimensions: 2640 x 50 ft. / 805 x 15 m
Surface: turf/dirt
RUNWAY 17  RUNWAY 35
Traffic pattern: leftleft
Obstructions: pline, marked, 50 ft. from runwaynone

Airport Ownership and Management from official FAA records

Ownership: Privately-owned
Owner: BOBBY H. HOY
992 S KINGSTON ST
AURORA, CO 80012
Phone 720-841-8026
OTHER CONTACT: SCOTT GRILLO 72875 VERBENA WAY CENTENNIAL , CO 80112 303-771-6770
Manager: THOMAS HOY
3700 CASCADE DR.
MCKINNEY, TX 75070

Airport Operational Statistics

Aircraft based on the field: 1
Single engine airplanes: 1
    

Additional Remarks

FOR CD CTC DENVER APCH AT 303-342-1916.

Instrument Procedures

There are no published instrument procedures at 76CO.

Some nearby airports with instrument procedures:

KCFO - Colorado Air and Space Port Airport (6 nm SW)
KDEN - Denver International Airport (12 nm W)
KBKF - Buckley Space Force Base (17 nm SW)
KAPA - Centennial Airport (25 nm SW)
KEIK - Erie Municipal Airport (31 nm W)
 
Loc | Ops | Rwys | IFR | FBO | Links
Com | Nav | Svcs | Stats | Notes

AirBoss

 
Area around 76CO (Hoy Airstrip)
 
Road maps at: MapQuest Bing Google
 
Aerial photo
No photo
 
Sectional chart

 
Airport distance calculator
Flying to Hoy Airstrip? Find the distance to fly.

From to 76CO

Sunrise and sunset
Times for 04-Feb-2023
 Local
(UTC-7)
 Zulu
(UTC)
Morning civil twilight06:3613:36
Sunrise07:0414:04
Sunset17:1900:19
Evening civil twilight17:4800:48

Current date and time
Zulu (UTC)  04-Feb-2023 10:03:49
Local (UTC-7)  04-Feb-2023 03:03:49
 
METAR
KCFO 
6nm SW 
040955Z AUTO 22012KT 10SM CLR 04/M11 A3003 RMK AO2 T00411113
KDEN 
10nm W 
040953Z 23007KT 10SM BKN220 03/M09 A3002 RMK AO2 SLP158 T00281094
KBKF 
17nm SW 
040958Z 20006KT 10SM FEW130 BKN220 03/M13 A3002 RMK AO2A SLP144 T00281127
TAF
KDEN 
10nm W 
040534Z 0406/0512 21011KT P6SM SCT100 BKN200 FM041600 25009KT P6SM FEW100 BKN200 FM050200 20010KT P6SM FEW100 BKN200
KBKF 
17nm SW 
040100Z 0401/0507 VRB06KT 9999 SKC 510013 QNH3006INS BECMG 0415/0416 VRB06KT 9999 FEW150 FEW210 SCT280 530054 QNH3007INS TX04/0422Z TNM02/0502Z
NOTAMs
Click for the latest NOTAMs
NOTAMs are issued by the DoD/FAA and will open in a separate window not controlled by AirNav.

 

 
 

Would you like to see your business listed on this page?

 If your business provides an interesting product or service to pilots, flight crews, aircraft, or users of the Hoy Airstrip, you should consider listing it here.  To start the listing process, click on the button below
 
Add a business
 

Other Pages about Hoy Airstrip

Update a link
 
Copyright © AirNav, LLC. All rights reserved. Privacy Policy  Contact